createdAt,value
2022-11-10T00:01:34.410Z,5.10
2022-11-10T00:04:05.876Z,5.00
2022-11-10T00:06:37.477Z,5.00
2022-11-10T00:09:08.603Z,5.00
2022-11-10T00:11:40.212Z,4.90
2022-11-10T00:14:30.525Z,4.90
2022-11-10T00:17:05.946Z,4.80
2022-11-10T00:19:37.524Z,4.80
2022-11-10T00:22:09.128Z,4.80
2022-11-10T00:24:41.247Z,4.70
2022-11-10T00:27:12.748Z,4.70
2022-11-10T00:29:46.758Z,4.70
2022-11-10T00:32:17.982Z,4.60
2022-11-10T00:34:49.668Z,4.60
2022-11-10T00:37:20.757Z,4.60
2022-11-10T00:39:52.165Z,4.60
2022-11-10T00:42:23.666Z,4.60
2022-11-10T00:44:57.057Z,4.60
2022-11-10T00:47:27.628Z,4.60
2022-11-10T00:49:58.585Z,4.60
2022-11-10T00:52:30.482Z,4.60
2022-11-10T00:55:01.243Z,4.60
2022-11-10T00:57:32.528Z,4.60
2022-11-10T01:00:05.820Z,4.60
2022-11-10T01:02:36.401Z,4.60
2022-11-10T01:05:07.122Z,4.50
2022-11-10T01:07:37.911Z,4.50
2022-11-10T01:10:09.698Z,4.50
2022-11-10T01:12:40.319Z,4.40
2022-11-10T01:15:13.884Z,4.30
2022-11-10T01:17:45.276Z,4.20
2022-11-10T01:20:15.854Z,4.10
2022-11-10T01:22:46.456Z,4.00
2022-11-10T01:25:18.198Z,4.00
2022-11-10T01:27:48.857Z,3.90
2022-11-10T01:30:21.590Z,3.90
2022-11-10T01:32:52.375Z,3.90
2022-11-10T01:35:23.392Z,3.90
2022-11-10T01:37:55.613Z,3.90
2022-11-10T01:40:26.472Z,4.00
2022-11-10T01:43:00.135Z,4.10
2022-11-10T01:45:48.501Z,4.10
2022-11-10T01:48:24.445Z,4.20
2022-11-10T01:50:56.703Z,4.20
2022-11-10T01:53:31.142Z,4.20
2022-11-10T01:56:02.503Z,4.10
2022-11-10T01:58:40.674Z,4.20
2022-11-10T02:01:13.789Z,4.20
2022-11-10T02:03:49.064Z,4.10
2022-11-10T02:06:22.217Z,4.00
2022-11-10T02:08:55.416Z,3.90
2022-11-10T02:11:27.460Z,3.80
2022-11-10T02:13:58.435Z,3.80
2022-11-10T02:16:31.347Z,3.60
2022-11-10T02:19:13.727Z,3.50
2022-11-10T02:21:46.923Z,3.40
2022-11-10T02:24:18.200Z,3.30
2022-11-10T02:26:53.798Z,3.30
2022-11-10T02:29:26.400Z,3.20
2022-11-10T02:32:00.104Z,3.10
2022-11-10T02:34:31.973Z,3.00
2022-11-10T02:37:05.739Z,2.90
2022-11-10T02:39:37.000Z,2.90
2022-11-10T02:42:11.260Z,2.80
2022-11-10T02:44:44.394Z,2.80
2022-11-10T02:47:15.530Z,2.70
2022-11-10T02:49:47.463Z,2.60
2022-11-10T02:52:20.554Z,2.50
2022-11-10T02:54:52.728Z,2.50
2022-11-10T02:57:23.877Z,2.50
2022-11-10T02:59:55.267Z,2.50
2022-11-10T03:02:32.094Z,2.40
2022-11-10T03:05:03.975Z,2.40
2022-11-10T03:07:37.081Z,2.30
2022-11-10T03:10:08.956Z,2.30
2022-11-10T03:12:39.990Z,2.20
2022-11-10T03:15:12.087Z,2.20
2022-11-10T03:17:44.208Z,2.20
2022-11-10T03:20:15.415Z,2.10
2022-11-10T03:22:48.754Z,2.00
2022-11-10T03:25:20.353Z,2.00
2022-11-10T03:27:51.413Z,2.00
2022-11-10T03:30:23.340Z,1.90
2022-11-10T03:32:55.372Z,1.90
2022-11-10T03:35:27.731Z,1.90
2022-11-10T03:38:01.473Z,1.90
2022-11-10T03:40:45.502Z,1.80
2022-11-10T03:43:24.710Z,1.80
2022-11-10T03:45:56.949Z,1.80
2022-11-10T03:48:31.762Z,1.70
2022-11-10T03:51:03.593Z,1.70
2022-11-10T03:53:36.633Z,1.70
2022-11-10T03:56:09.245Z,1.60
2022-11-10T03:58:41.562Z,1.70
2022-11-10T04:01:14.889Z,1.60
2022-11-10T04:03:51.094Z,1.60
2022-11-10T04:06:44.793Z,1.50
2022-11-10T04:09:18.718Z,1.50
2022-11-10T04:12:05.679Z,1.40
2022-11-10T04:14:53.319Z,1.40
2022-11-10T04:17:24.995Z,1.30
2022-11-10T04:19:56.987Z,1.30
2022-11-10T04:22:41.448Z,1.30
2022-11-10T04:25:16.748Z,1.30
2022-11-10T04:27:47.974Z,1.20
2022-11-10T04:30:20.476Z,1.20
2022-11-10T04:32:52.579Z,1.10
2022-11-10T04:35:23.726Z,1.10
2022-11-10T04:37:54.897Z,1.10
2022-11-10T04:40:29.944Z,1.10
2022-11-10T04:43:01.919Z,1.00
2022-11-10T04:45:32.999Z,1.00
2022-11-10T04:48:04.039Z,1.00
2022-11-10T04:50:38.906Z,1.00
2022-11-10T04:53:11.743Z,0.90
2022-11-10T04:55:47.995Z,0.90
2022-11-10T04:58:19.393Z,0.90
2022-11-10T05:00:50.697Z,0.90
2022-11-10T05:03:22.233Z,0.90
2022-11-10T05:05:53.617Z,0.90
2022-11-10T05:08:25.856Z,0.90
2022-11-10T05:10:59.716Z,1.00
2022-11-10T05:13:31.150Z,1.00
2022-11-10T05:16:02.648Z,1.10
2022-11-10T05:18:33.861Z,1.20
2022-11-10T05:21:05.030Z,1.30
2022-11-10T05:23:42.946Z,1.40
2022-11-10T05:26:21.171Z,1.50
2022-11-10T05:28:52.479Z,1.60
2022-11-10T05:31:23.893Z,1.70
2022-11-10T05:33:54.976Z,1.70
2022-11-10T05:36:26.068Z,1.80
2022-11-10T05:38:57.587Z,1.90
2022-11-10T05:41:32.198Z,1.90
2022-11-10T05:44:03.357Z,2.00
2022-11-10T05:46:35.076Z,2.00
2022-11-10T05:49:06.327Z,2.10
2022-11-10T05:51:38.094Z,2.10
2022-11-10T05:54:09.688Z,2.20
2022-11-10T05:56:43.577Z,2.10
2022-11-10T05:59:14.619Z,2.10
2022-11-10T06:01:45.636Z,2.10
2022-11-10T06:04:16.645Z,2.10
2022-11-10T06:06:48.228Z,2.10
2022-11-10T06:09:19.255Z,2.20
2022-11-10T06:11:52.558Z,2.20
2022-11-10T06:14:23.551Z,2.20
2022-11-10T06:16:55.370Z,2.20
2022-11-10T06:19:26.996Z,2.30
2022-11-10T06:22:05.019Z,2.30
2022-11-10T06:24:38.510Z,2.30
2022-11-10T06:27:14.293Z,2.30
2022-11-10T06:29:47.998Z,2.30
2022-11-10T06:32:19.102Z,2.30
2022-11-10T06:34:50.196Z,2.30
2022-11-10T06:37:22.316Z,2.30
2022-11-10T06:39:53.603Z,2.30
2022-11-10T06:42:28.621Z,2.30
2022-11-10T06:44:59.877Z,2.40
2022-11-10T06:47:30.952Z,2.40
2022-11-10T06:50:02.042Z,2.40
2022-11-10T06:52:33.495Z,2.40
2022-11-10T06:55:05.149Z,2.40
2022-11-10T06:57:44.802Z,2.40
2022-11-10T07:00:17.319Z,2.40
2022-11-10T07:02:48.372Z,2.40
2022-11-10T07:05:20.129Z,2.40
2022-11-10T07:07:51.974Z,2.40
2022-11-10T07:10:23.866Z,2.40
2022-11-10T07:13:01.675Z,2.40
2022-11-10T07:15:34.954Z,2.40
2022-11-10T07:18:07.464Z,2.50
2022-11-10T07:20:39.142Z,2.50
2022-11-10T07:23:11.964Z,2.50
2022-11-10T07:25:43.218Z,2.50
2022-11-10T07:28:16.848Z,2.50
2022-11-10T07:30:48.259Z,2.50
2022-11-10T07:33:20.692Z,2.50
2022-11-10T07:35:58.130Z,2.50
2022-11-10T07:38:29.842Z,2.50
2022-11-10T07:41:02.252Z,2.60
2022-11-10T07:43:35.403Z,2.60
2022-11-10T07:46:07.546Z,2.60
2022-11-10T07:48:39.083Z,2.70
2022-11-10T07:51:10.359Z,2.70
2022-11-10T07:53:42.507Z,2.70
2022-11-10T07:56:13.647Z,2.80
2022-11-10T07:58:47.018Z,2.80
2022-11-10T08:01:20.428Z,2.80
2022-11-10T08:03:51.658Z,2.70
2022-11-10T08:06:22.709Z,2.80
2022-11-10T08:08:54.862Z,2.80
2022-11-10T08:11:26.698Z,2.70
2022-11-10T08:14:00.797Z,2.70
2022-11-10T08:16:32.797Z,2.70
2022-11-10T08:19:04.098Z,2.70
2022-11-10T08:21:36.306Z,2.70
2022-11-10T08:24:08.461Z,2.70
2022-11-10T08:26:40.741Z,2.70
2022-11-10T08:29:14.824Z,2.70
2022-11-10T08:31:45.835Z,2.70
2022-11-10T08:34:17.289Z,2.70
2022-11-10T08:36:48.374Z,2.80
2022-11-10T08:39:37.525Z,2.70
2022-11-10T08:42:10.407Z,2.80
2022-11-10T08:44:43.524Z,2.80
2022-11-10T08:47:15.222Z,2.80
2022-11-10T08:49:47.079Z,2.80
2022-11-10T08:52:18.110Z,2.80
2022-11-10T08:54:52.998Z,2.80
2022-11-10T08:57:24.696Z,2.80
2022-11-10T08:59:58.188Z,2.80
2022-11-10T09:02:29.193Z,2.80
2022-11-10T09:05:00.568Z,2.80
2022-11-10T09:07:32.006Z,2.80
2022-11-10T09:10:07.242Z,2.90
2022-11-10T09:12:42.690Z,3.00
2022-11-10T09:15:16.992Z,2.90
2022-11-10T09:17:48.010Z,2.80
2022-11-10T09:20:19.535Z,2.80
2022-11-10T09:22:50.601Z,2.80
2022-11-10T09:25:21.750Z,2.80
2022-11-10T09:27:54.030Z,2.80
2022-11-10T09:30:27.752Z,2.90
2022-11-10T09:33:00.464Z,2.90
2022-11-10T09:35:32.216Z,2.80
2022-11-10T09:38:04.318Z,2.80
2022-11-10T09:40:49.727Z,2.90
2022-11-10T09:43:26.941Z,2.80
2022-11-10T09:46:04.790Z,2.90
2022-11-10T09:48:40.643Z,2.90
2022-11-10T09:51:15.260Z,2.90
2022-11-10T09:53:51.167Z,3.00
2022-11-10T09:56:29.863Z,2.90
2022-11-10T09:59:00.879Z,2.90
2022-11-10T10:01:44.553Z,3.00
2022-11-10T10:04:28.998Z,3.00
2022-11-10T10:07:11.557Z,2.90
2022-11-10T10:09:52.432Z,2.90
2022-11-10T10:12:42.140Z,2.90
2022-11-10T10:15:25.930Z,3.00
2022-11-10T10:18:12.285Z,3.00
2022-11-10T10:20:53.198Z,3.00
2022-11-10T10:23:54.449Z,3.00
2022-11-10T10:26:26.500Z,3.10
2022-11-10T10:28:58.862Z,3.10
2022-11-10T10:31:40.480Z,3.10
2022-11-10T10:34:18.714Z,3.00
2022-11-10T10:36:50.518Z,3.00
2022-11-10T10:39:31.238Z,3.00
2022-11-10T10:42:02.545Z,3.10
2022-11-10T10:44:33.565Z,3.10
2022-11-10T10:47:05.821Z,3.10
2022-11-10T10:49:40.722Z,3.10
2022-11-10T10:52:16.821Z,3.10
2022-11-10T10:54:48.310Z,3.10
2022-11-10T10:57:26.575Z,3.10
2022-11-10T11:00:18.283Z,3.10
2022-11-10T11:03:05.463Z,3.10
2022-11-10T11:05:42.729Z,3.10
2022-11-10T11:08:22.174Z,3.10
2022-11-10T11:10:53.526Z,3.10
2022-11-10T11:13:28.327Z,3.20
2022-11-10T11:16:05.581Z,3.10
2022-11-10T11:18:38.726Z,3.20
2022-11-10T11:21:29.256Z,3.20
2022-11-10T11:24:26.144Z,3.20
2022-11-10T11:27:02.850Z,3.20
2022-11-10T11:30:03.181Z,3.20
2022-11-10T11:32:59.686Z,3.20
2022-11-10T11:35:37.235Z,3.20
2022-11-10T11:38:15.934Z,3.20
2022-11-10T11:41:00.718Z,3.20
2022-11-10T11:43:53.972Z,3.20
2022-11-10T11:46:34.747Z,3.20
2022-11-10T11:49:24.680Z,3.20
2022-11-10T11:52:06.392Z,3.20
2022-11-10T11:54:51.720Z,3.10
2022-11-10T11:57:39.695Z,3.10
2022-11-10T12:00:15.622Z,3.20
2022-11-10T12:03:14.929Z,3.10
2022-11-10T12:05:56.316Z,3.00
2022-11-10T12:08:39.311Z,3.00
2022-11-10T12:11:24.058Z,3.00
2022-11-10T12:14:07.219Z,3.00
2022-11-10T12:16:39.834Z,3.10
2022-11-10T12:19:25.080Z,3.10
2022-11-10T12:21:59.047Z,3.10
2022-11-10T12:24:52.145Z,3.10
2022-11-10T12:27:30.255Z,3.10
2022-11-10T12:30:06.038Z,3.00
2022-11-10T12:32:44.177Z,3.00
2022-11-10T12:35:22.070Z,3.00
2022-11-10T12:37:56.959Z,3.00
2022-11-10T12:40:36.924Z,3.10
2022-11-10T12:43:21.842Z,3.00
2022-11-10T12:45:57.599Z,3.10
2022-11-10T12:48:32.858Z,3.10
2022-11-10T12:51:09.225Z,3.10
2022-11-10T12:53:43.650Z,3.10
2022-11-10T12:56:22.256Z,3.10
2022-11-10T12:59:28.230Z,3.10
2022-11-10T13:02:08.450Z,3.10
2022-11-10T13:04:39.588Z,3.10
2022-11-10T13:07:13.454Z,3.20
2022-11-10T13:09:47.907Z,3.20
2022-11-10T13:12:21.815Z,3.10
2022-11-10T13:14:57.297Z,3.10
2022-11-10T13:17:58.263Z,3.10
2022-11-10T13:20:53.002Z,3.20
2022-11-10T13:23:32.670Z,3.20
2022-11-10T13:26:07.191Z,3.10
2022-11-10T13:28:59.316Z,3.10
2022-11-10T13:31:56.015Z,3.10
2022-11-10T13:34:38.317Z,3.10
2022-11-10T13:37:44.567Z,3.10
2022-11-10T13:40:32.215Z,3.10
2022-11-10T13:43:30.749Z,3.10
2022-11-10T13:46:10.420Z,3.10
2022-11-10T13:49:29.474Z,3.10
2022-11-10T13:52:12.796Z,3.20
2022-11-10T13:55:15.969Z,3.00
2022-11-10T13:58:02.271Z,3.00
2022-11-10T14:00:36.230Z,2.90
2022-11-10T14:03:08.713Z,3.00
2022-11-10T14:06:17.175Z,3.00
2022-11-10T14:09:07.324Z,3.00
2022-11-10T14:11:43.681Z,3.10
2022-11-10T14:14:24.768Z,3.10
2022-11-10T14:16:56.485Z,3.10
2022-11-10T14:19:40.404Z,3.10
2022-11-10T14:22:25.419Z,3.10
2022-11-10T14:25:06.515Z,3.20
2022-11-10T14:27:41.054Z,3.20
2022-11-10T14:30:25.643Z,3.20
2022-11-10T14:33:03.414Z,3.20
2022-11-10T14:35:37.136Z,3.20
2022-11-10T14:38:10.176Z,3.20
2022-11-10T14:40:45.694Z,3.20
2022-11-10T14:43:31.484Z,3.20
2022-11-10T14:46:03.447Z,3.20
2022-11-10T14:48:37.085Z,3.20
2022-11-10T14:51:11.680Z,3.20
2022-11-10T14:53:44.860Z,3.20
2022-11-10T14:56:22.322Z,3.20
2022-11-10T14:58:54.227Z,3.30
2022-11-10T15:01:30.090Z,3.30
2022-11-10T15:04:01.441Z,3.30
2022-11-10T15:06:34.082Z,3.30
2022-11-10T15:09:17.608Z,3.30
2022-11-10T15:11:57.284Z,3.30
2022-11-10T15:14:44.013Z,3.30
2022-11-10T15:17:16.650Z,3.30
2022-11-10T15:19:57.868Z,3.30
2022-11-10T15:22:33.931Z,3.30
2022-11-10T15:25:11.870Z,3.50
2022-11-10T15:27:51.115Z,3.40
2022-11-10T15:30:26.028Z,3.40
2022-11-10T15:33:02.038Z,3.40
2022-11-10T15:35:35.052Z,3.50
2022-11-10T15:38:08.540Z,3.50
2022-11-10T15:40:47.875Z,3.50
2022-11-10T15:43:31.025Z,3.50
2022-11-10T15:46:07.103Z,3.50
2022-11-10T15:48:43.131Z,3.50
2022-11-10T15:51:19.019Z,3.60
2022-11-10T15:53:55.693Z,3.50
2022-11-10T15:56:27.289Z,3.50
2022-11-10T15:59:02.537Z,3.60
2022-11-10T16:01:35.499Z,3.60
2022-11-10T16:04:09.564Z,3.60
2022-11-10T16:06:44.483Z,3.70
2022-11-10T16:09:16.837Z,3.70
2022-11-10T16:11:48.992Z,3.70
2022-11-10T16:14:22.234Z,3.70
2022-11-10T16:16:53.758Z,3.80
2022-11-10T16:19:25.907Z,3.80
2022-11-10T16:21:57.108Z,3.80
2022-11-10T16:24:28.292Z,3.80
2022-11-10T16:27:01.793Z,3.80
2022-11-10T16:29:39.952Z,3.90
2022-11-10T16:32:13.057Z,3.90
2022-11-10T16:34:45.388Z,3.90
2022-11-10T16:37:16.794Z,4.00
2022-11-10T16:39:48.432Z,4.00
2022-11-10T16:42:20.013Z,4.10
2022-11-10T16:44:55.021Z,4.10
2022-11-10T16:47:26.094Z,4.10
2022-11-10T16:49:57.929Z,4.10
2022-11-10T16:52:29.791Z,4.20
2022-11-10T16:55:01.607Z,4.20
2022-11-10T16:57:38.738Z,4.20
2022-11-10T17:00:15.401Z,4.30
2022-11-10T17:02:51.328Z,4.50
2022-11-10T17:05:23.786Z,4.50
2022-11-10T17:07:56.221Z,4.50
2022-11-10T17:10:28.233Z,4.60
2022-11-10T17:13:05.409Z,4.60
2022-11-10T17:15:39.262Z,4.60
2022-11-10T17:18:12.211Z,4.80
2022-11-10T17:20:46.140Z,4.70
2022-11-10T17:23:19.294Z,4.70
2022-11-10T17:25:50.897Z,4.80
2022-11-10T17:28:23.915Z,4.80
2022-11-10T17:30:57.314Z,4.80
2022-11-10T17:33:28.389Z,4.90
2022-11-10T17:36:00.904Z,5.00
2022-11-10T17:38:34.834Z,4.90
2022-11-10T17:41:06.483Z,5.00
2022-11-10T17:43:40.425Z,5.10
2022-11-10T17:46:17.927Z,5.10
2022-11-10T17:48:51.721Z,5.20
2022-11-10T17:51:24.458Z,5.20
2022-11-10T17:53:56.071Z,5.10
2022-11-10T17:56:27.559Z,5.00
2022-11-10T17:58:59.482Z,5.00
2022-11-10T18:01:34.437Z,5.10
2022-11-10T18:04:06.321Z,5.10
2022-11-10T18:06:38.502Z,5.10
2022-11-10T18:09:11.084Z,5.00
2022-11-10T18:11:42.785Z,5.10
2022-11-10T18:14:15.526Z,5.10
2022-11-10T18:16:49.698Z,5.20
2022-11-10T18:19:21.812Z,5.20
2022-11-10T18:21:52.959Z,5.30
2022-11-10T18:24:24.554Z,5.30
2022-11-10T18:26:55.749Z,5.40
2022-11-10T18:29:26.695Z,5.40
2022-11-10T18:31:59.892Z,5.50
2022-11-10T18:34:32.331Z,5.60
2022-11-10T18:37:03.569Z,5.70
2022-11-10T18:39:34.644Z,5.80
2022-11-10T18:42:06.677Z,5.90
2022-11-10T18:44:38.567Z,6.00
2022-11-10T18:47:14.610Z,6.10
2022-11-10T18:49:45.909Z,6.10
2022-11-10T18:52:17.064Z,6.20
2022-11-10T18:54:48.166Z,6.30
2022-11-10T18:57:19.192Z,6.50
2022-11-10T18:59:51.696Z,6.40
2022-11-10T19:02:25.793Z,6.60
2022-11-10T19:04:57.292Z,6.80
2022-11-10T19:07:28.338Z,7.00
2022-11-10T19:09:59.827Z,7.10
2022-11-10T19:12:31.835Z,7.20
2022-11-10T19:15:03.098Z,7.30
2022-11-10T19:17:36.867Z,7.30
2022-11-10T19:20:11.496Z,7.30
2022-11-10T19:22:42.510Z,7.30
2022-11-10T19:25:15.598Z,7.20
2022-11-10T19:27:46.602Z,7.10
2022-11-10T19:30:18.101Z,7.20
2022-11-10T19:32:51.963Z,7.20
2022-11-10T19:35:23.520Z,7.30
2022-11-10T19:37:55.905Z,7.40
2022-11-10T19:40:27.139Z,7.20
2022-11-10T19:42:59.144Z,7.20
2022-11-10T19:45:30.227Z,7.10
2022-11-10T19:48:03.945Z,7.00
2022-11-10T19:50:35.672Z,6.90
2022-11-10T19:53:06.918Z,6.80
2022-11-10T19:55:40.116Z,6.70
2022-11-10T19:58:12.425Z,6.70
2022-11-10T20:00:44.267Z,6.70
2022-11-10T20:03:17.557Z,6.70
2022-11-10T20:05:49.092Z,6.60
2022-11-10T20:08:22.826Z,6.60
2022-11-10T20:10:54.466Z,6.60
2022-11-10T20:13:26.052Z,6.60
2022-11-10T20:15:57.116Z,6.70
2022-11-10T20:18:36.002Z,6.80
2022-11-10T20:21:08.502Z,6.90
2022-11-10T20:23:40.015Z,6.90
2022-11-10T20:26:14.736Z,7.00
2022-11-10T20:28:48.118Z,7.20
2022-11-10T20:31:22.112Z,7.40
2022-11-10T20:33:56.834Z,7.50
2022-11-10T20:36:29.679Z,7.50
2022-11-10T20:39:03.243Z,7.60
2022-11-10T20:41:34.484Z,7.70
2022-11-10T20:44:06.369Z,7.70
2022-11-10T20:46:54.060Z,7.70
2022-11-10T20:49:28.593Z,7.80
2022-11-10T20:52:00.823Z,7.70
2022-11-10T20:54:32.403Z,7.70
2022-11-10T20:57:03.383Z,7.90
2022-11-10T20:59:34.722Z,7.90
2022-11-10T21:02:06.008Z,8.00
2022-11-10T21:04:43.179Z,7.90
2022-11-10T21:07:14.758Z,7.90
2022-11-10T21:09:45.896Z,8.10
2022-11-10T21:12:34.234Z,7.90
2022-11-10T21:15:05.333Z,8.00
2022-11-10T21:17:41.527Z,8.00
2022-11-10T21:20:18.512Z,8.10
2022-11-10T21:22:49.990Z,8.20
2022-11-10T21:25:21.615Z,8.30
2022-11-10T21:27:52.711Z,8.40
2022-11-10T21:30:25.566Z,8.50
2022-11-10T21:32:56.618Z,8.50
2022-11-10T21:35:35.328Z,8.70
2022-11-10T21:38:09.137Z,8.60
2022-11-10T21:40:40.470Z,8.60
2022-11-10T21:43:12.547Z,8.60
2022-11-10T21:45:44.075Z,8.60
2022-11-10T21:48:14.869Z,8.70
2022-11-10T21:50:49.324Z,8.80
2022-11-10T21:53:20.757Z,8.80
2022-11-10T21:55:53.585Z,8.90
2022-11-10T21:58:25.725Z,8.70
2022-11-10T22:01:03.673Z,8.70
2022-11-10T22:03:37.203Z,8.70
2022-11-10T22:06:13.311Z,8.50
2022-11-10T22:08:45.130Z,8.60
2022-11-10T22:11:33.718Z,8.70
2022-11-10T22:14:20.761Z,8.60
2022-11-10T22:17:09.632Z,8.60
2022-11-10T22:19:41.133Z,8.60
2022-11-10T22:22:16.934Z,8.60
2022-11-10T22:24:47.953Z,8.60
2022-11-10T22:27:22.396Z,8.50
2022-11-10T22:29:54.929Z,8.40
2022-11-10T22:32:27.999Z,8.40
2022-11-10T22:34:59.045Z,8.50
2022-11-10T22:37:34.410Z,8.50
2022-11-10T22:40:21.971Z,8.60
2022-11-10T22:43:09.184Z,8.50
2022-11-10T22:45:40.194Z,8.40
2022-11-10T22:48:30.584Z,8.50
2022-11-10T22:51:02.579Z,8.50
2022-11-10T22:53:40.497Z,8.40
2022-11-10T22:56:11.872Z,8.40
2022-11-10T22:58:43.476Z,8.40
2022-11-10T23:01:15.371Z,8.30
2022-11-10T23:03:49.616Z,8.40
2022-11-10T23:06:21.480Z,8.30
2022-11-10T23:08:55.958Z,8.30
2022-11-10T23:11:29.481Z,8.30
2022-11-10T23:14:01.267Z,8.30
2022-11-10T23:16:35.472Z,8.20
2022-11-10T23:19:07.323Z,8.20
2022-11-10T23:21:38.397Z,8.10
2022-11-10T23:24:14.511Z,8.10
2022-11-10T23:26:46.560Z,8.10
2022-11-10T23:29:18.169Z,8.00
2022-11-10T23:31:49.287Z,7.90
2022-11-10T23:34:20.782Z,7.90
2022-11-10T23:36:52.979Z,7.90
2022-11-10T23:39:26.731Z,7.80
2022-11-10T23:41:58.863Z,7.80
2022-11-10T23:44:29.875Z,7.80
2022-11-10T23:47:04.673Z,7.70
2022-11-10T23:49:36.296Z,7.70
2022-11-10T23:52:07.785Z,7.70
2022-11-10T23:54:40.862Z,7.70
2022-11-10T23:57:12.713Z,7.70
2022-11-10T23:59:44.367Z,7.70
